sensor_id;sensor_type;location;lat;lon;timestamp;P1;durP1;ratioP1;P2;durP2;ratioP2
60430;SDS011;46285;45.122;20.726;2022-12-18T00:02:05;52.78;;;29.85;;
60430;SDS011;46285;45.122;20.726;2022-12-18T00:12:06;54.03;;;31.75;;
60430;SDS011;46285;45.122;20.726;2022-12-18T00:22:08;54.67;;;33.35;;
60430;SDS011;46285;45.122;20.726;2022-12-18T00:32:09;101.10;;;61.35;;
60430;SDS011;46285;45.122;20.726;2022-12-18T00:42:10;70.75;;;46.40;;
60430;SDS011;46285;45.122;20.726;2022-12-18T00:52:12;82.00;;;48.03;;
60430;SDS011;46285;45.122;20.726;2022-12-18T01:02:13;112.45;;;61.25;;
60430;SDS011;46285;45.122;20.726;2022-12-18T01:12:14;53.67;;;30.98;;
60430;SDS011;46285;45.122;20.726;2022-12-18T01:22:15;52.40;;;31.95;;
60430;SDS011;46285;45.122;20.726;2022-12-18T01:32:19;44.55;;;26.10;;
60430;SDS011;46285;45.122;20.726;2022-12-18T01:42:20;44.45;;;25.95;;
60430;SDS011;46285;45.122;20.726;2022-12-18T01:52:22;43.70;;;24.33;;
60430;SDS011;46285;45.122;20.726;2022-12-18T02:02:24;46.22;;;27.20;;
60430;SDS011;46285;45.122;20.726;2022-12-18T02:12:34;47.28;;;26.35;;
60430;SDS011;46285;45.122;20.726;2022-12-18T02:33:07;46.20;;;25.77;;
60430;SDS011;46285;45.122;20.726;2022-12-18T02:43:10;43.15;;;26.10;;
60430;SDS011;46285;45.122;20.726;2022-12-18T03:03:19;46.88;;;23.67;;
60430;SDS011;46285;45.122;20.726;2022-12-18T03:13:56;50.67;;;28.48;;
60430;SDS011;46285;45.122;20.726;2022-12-18T03:23:50;45.75;;;24.40;;
60430;SDS011;46285;45.122;20.726;2022-12-18T03:33:56;45.13;;;27.63;;
60430;SDS011;46285;45.122;20.726;2022-12-18T03:44:13;46.40;;;26.80;;
60430;SDS011;46285;45.122;20.726;2022-12-18T03:54:19;45.38;;;26.90;;
60430;SDS011;46285;45.122;20.726;2022-12-18T04:04:28;55.53;;;29.08;;
60430;SDS011;46285;45.122;20.726;2022-12-18T04:14:33;50.63;;;30.05;;
60430;SDS011;46285;45.122;20.726;2022-12-18T04:24:35;47.92;;;26.98;;
60430;SDS011;46285;45.122;20.726;2022-12-18T04:34:43;50.08;;;27.88;;
60430;SDS011;46285;45.122;20.726;2022-12-18T04:44:45;49.13;;;25.58;;
60430;SDS011;46285;45.122;20.726;2022-12-18T04:54:46;52.47;;;29.67;;
60430;SDS011;46285;45.122;20.726;2022-12-18T05:04:48;50.00;;;28.77;;
60430;SDS011;46285;45.122;20.726;2022-12-18T05:14:49;56.33;;;28.23;;
60430;SDS011;46285;45.122;20.726;2022-12-18T05:24:50;55.15;;;32.53;;
60430;SDS011;46285;45.122;20.726;2022-12-18T05:34:51;51.70;;;29.92;;
60430;SDS011;46285;45.122;20.726;2022-12-18T05:44:52;54.60;;;32.30;;
60430;SDS011;46285;45.122;20.726;2022-12-18T05:54:53;60.08;;;32.72;;
60430;SDS011;46285;45.122;20.726;2022-12-18T06:04:54;57.95;;;30.83;;
60430;SDS011;46285;45.122;20.726;2022-12-18T06:14:56;57.80;;;32.58;;
60430;SDS011;46285;45.122;20.726;2022-12-18T06:24:57;62.00;;;34.97;;
60430;SDS011;46285;45.122;20.726;2022-12-18T06:34:58;97.43;;;55.22;;
60430;SDS011;46285;45.122;20.726;2022-12-18T06:44:59;136.65;;;69.95;;
60430;SDS011;46285;45.122;20.726;2022-12-18T06:55:00;66.78;;;33.72;;
60430;SDS011;46285;45.122;20.726;2022-12-18T07:05:02;59.55;;;33.05;;
60430;SDS011;46285;45.122;20.726;2022-12-18T07:15:03;52.78;;;31.58;;
60430;SDS011;46285;45.122;20.726;2022-12-18T07:25:05;64.60;;;35.00;;
60430;SDS011;46285;45.122;20.726;2022-12-18T07:35:06;71.95;;;39.10;;
60430;SDS011;46285;45.122;20.726;2022-12-18T07:45:07;76.13;;;39.17;;
60430;SDS011;46285;45.122;20.726;2022-12-18T07:55:09;66.10;;;37.90;;
60430;SDS011;46285;45.122;20.726;2022-12-18T08:05:10;85.57;;;47.13;;
60430;SDS011;46285;45.122;20.726;2022-12-18T08:15:11;70.25;;;42.83;;
60430;SDS011;46285;45.122;20.726;2022-12-18T08:25:12;69.55;;;35.75;;
60430;SDS011;46285;45.122;20.726;2022-12-18T08:35:13;56.63;;;34.13;;
60430;SDS011;46285;45.122;20.726;2022-12-18T08:45:14;64.82;;;37.95;;
60430;SDS011;46285;45.122;20.726;2022-12-18T08:55:16;71.93;;;45.15;;
60430;SDS011;46285;45.122;20.726;2022-12-18T09:05:17;63.33;;;37.50;;
60430;SDS011;46285;45.122;20.726;2022-12-18T09:15:18;71.72;;;44.05;;
60430;SDS011;46285;45.122;20.726;2022-12-18T09:25:19;86.63;;;53.47;;
60430;SDS011;46285;45.122;20.726;2022-12-18T09:35:20;58.58;;;35.38;;
60430;SDS011;46285;45.122;20.726;2022-12-18T09:45:27;67.95;;;41.53;;
60430;SDS011;46285;45.122;20.726;2022-12-18T09:55:48;63.20;;;37.80;;
60430;SDS011;46285;45.122;20.726;2022-12-18T10:16:35;73.55;;;42.53;;
60430;SDS011;46285;45.122;20.726;2022-12-18T10:37:31;73.38;;;42.72;;
60430;SDS011;46285;45.122;20.726;2022-12-18T10:47:51;78.00;;;45.50;;
60430;SDS011;46285;45.122;20.726;2022-12-18T11:08:24;62.88;;;35.40;;
60430;SDS011;46285;45.122;20.726;2022-12-18T11:18:28;69.20;;;39.17;;
60430;SDS011;46285;45.122;20.726;2022-12-18T11:49:35;92.53;;;48.03;;
60430;SDS011;46285;45.122;20.726;2022-12-18T11:59:50;73.28;;;39.80;;
60430;SDS011;46285;45.122;20.726;2022-12-18T12:10:18;75.40;;;44.45;;
60430;SDS011;46285;45.122;20.726;2022-12-18T12:31:32;85.13;;;49.13;;
60430;SDS011;46285;45.122;20.726;2022-12-18T12:41:36;125.22;;;87.07;;
60430;SDS011;46285;45.122;20.726;2022-12-18T12:51:39;82.32;;;46.17;;
60430;SDS011;46285;45.122;20.726;2022-12-18T13:01:49;91.30;;;46.55;;
60430;SDS011;46285;45.122;20.726;2022-12-18T13:11:54;105.03;;;54.60;;
60430;SDS011;46285;45.122;20.726;2022-12-18T13:22:02;115.82;;;63.70;;
60430;SDS011;46285;45.122;20.726;2022-12-18T13:32:10;87.97;;;52.13;;
60430;SDS011;46285;45.122;20.726;2022-12-18T13:42:37;90.72;;;49.05;;
60430;SDS011;46285;45.122;20.726;2022-12-18T13:52:42;87.70;;;47.78;;
60430;SDS011;46285;45.122;20.726;2022-12-18T14:02:44;93.65;;;50.72;;
60430;SDS011;46285;45.122;20.726;2022-12-18T14:12:49;111.57;;;53.35;;
60430;SDS011;46285;45.122;20.726;2022-12-18T14:22:51;134.07;;;79.20;;
60430;SDS011;46285;45.122;20.726;2022-12-18T14:43:36;136.60;;;74.13;;
60430;SDS011;46285;45.122;20.726;2022-12-18T15:03:42;96.13;;;56.65;;
60430;SDS011;46285;45.122;20.726;2022-12-18T15:13:43;128.90;;;70.17;;
60430;SDS011;46285;45.122;20.726;2022-12-18T15:23:51;105.55;;;57.53;;
60430;SDS011;46285;45.122;20.726;2022-12-18T15:44:23;80.55;;;45.03;;
60430;SDS011;46285;45.122;20.726;2022-12-18T16:04:29;91.43;;;47.67;;
60430;SDS011;46285;45.122;20.726;2022-12-18T16:14:35;86.68;;;45.85;;
60430;SDS011;46285;45.122;20.726;2022-12-18T16:24:36;106.53;;;55.85;;
60430;SDS011;46285;45.122;20.726;2022-12-18T16:34:37;98.70;;;51.55;;
60430;SDS011;46285;45.122;20.726;2022-12-18T16:44:38;123.50;;;62.72;;
60430;SDS011;46285;45.122;20.726;2022-12-18T16:54:40;154.25;;;83.18;;
60430;SDS011;46285;45.122;20.726;2022-12-18T17:04:41;146.65;;;77.10;;
60430;SDS011;46285;45.122;20.726;2022-12-18T17:14:42;184.65;;;87.03;;
60430;SDS011;46285;45.122;20.726;2022-12-18T17:24:43;177.40;;;91.82;;
60430;SDS011;46285;45.122;20.726;2022-12-18T17:34:46;245.50;;;125.05;;
60430;SDS011;46285;45.122;20.726;2022-12-18T17:44:47;238.38;;;126.80;;
60430;SDS011;46285;45.122;20.726;2022-12-18T17:54:48;230.07;;;119.15;;
60430;SDS011;46285;45.122;20.726;2022-12-18T18:04:49;218.55;;;114.18;;
60430;SDS011;46285;45.122;20.726;2022-12-18T18:14:50;199.70;;;98.20;;
60430;SDS011;46285;45.122;20.726;2022-12-18T18:24:53;233.40;;;110.60;;
60430;SDS011;46285;45.122;20.726;2022-12-18T18:34:54;299.52;;;135.35;;
60430;SDS011;46285;45.122;20.726;2022-12-18T18:44:55;307.23;;;133.45;;
60430;SDS011;46285;45.122;20.726;2022-12-18T18:54:56;237.32;;;106.28;;
60430;SDS011;46285;45.122;20.726;2022-12-18T19:04:57;234.02;;;110.57;;
60430;SDS011;46285;45.122;20.726;2022-12-18T19:14:59;153.00;;;76.45;;
60430;SDS011;46285;45.122;20.726;2022-12-18T19:25:00;132.15;;;66.40;;
60430;SDS011;46285;45.122;20.726;2022-12-18T19:35:01;122.07;;;59.80;;
60430;SDS011;46285;45.122;20.726;2022-12-18T19:45:02;136.48;;;68.13;;
60430;SDS011;46285;45.122;20.726;2022-12-18T19:55:03;118.28;;;59.42;;
60430;SDS011;46285;45.122;20.726;2022-12-18T20:05:06;112.88;;;56.08;;
60430;SDS011;46285;45.122;20.726;2022-12-18T20:15:07;137.07;;;71.18;;
60430;SDS011;46285;45.122;20.726;2022-12-18T20:25:09;135.45;;;74.00;;
60430;SDS011;46285;45.122;20.726;2022-12-18T20:35:10;163.57;;;87.05;;
60430;SDS011;46285;45.122;20.726;2022-12-18T20:45:11;152.02;;;77.55;;
60430;SDS011;46285;45.122;20.726;2022-12-18T20:55:12;164.57;;;88.95;;
60430;SDS011;46285;45.122;20.726;2022-12-18T21:05:14;207.15;;;107.10;;
60430;SDS011;46285;45.122;20.726;2022-12-18T21:15:15;149.13;;;74.95;;
60430;SDS011;46285;45.122;20.726;2022-12-18T21:25:16;199.95;;;104.53;;
60430;SDS011;46285;45.122;20.726;2022-12-18T21:35:17;133.00;;;67.90;;
60430;SDS011;46285;45.122;20.726;2022-12-18T21:45:19;179.25;;;85.53;;
60430;SDS011;46285;45.122;20.726;2022-12-18T21:55:20;193.93;;;98.82;;
60430;SDS011;46285;45.122;20.726;2022-12-18T22:05:22;172.35;;;84.45;;
60430;SDS011;46285;45.122;20.726;2022-12-18T22:15:23;147.60;;;71.75;;
60430;SDS011;46285;45.122;20.726;2022-12-18T22:25:24;157.90;;;77.15;;
60430;SDS011;46285;45.122;20.726;2022-12-18T22:35:25;181.82;;;88.00;;
60430;SDS011;46285;45.122;20.726;2022-12-18T22:45:26;166.68;;;83.30;;
60430;SDS011;46285;45.122;20.726;2022-12-18T22:55:28;194.43;;;97.68;;
60430;SDS011;46285;45.122;20.726;2022-12-18T23:05:29;193.40;;;94.13;;
60430;SDS011;46285;45.122;20.726;2022-12-18T23:15:30;187.23;;;94.50;;
60430;SDS011;46285;45.122;20.726;2022-12-18T23:25:31;191.57;;;94.90;;
60430;SDS011;46285;45.122;20.726;2022-12-18T23:35:33;344.48;;;156.25;;
60430;SDS011;46285;45.122;20.726;2022-12-18T23:45:36;262.70;;;118.78;;
60430;SDS011;46285;45.122;20.726;2022-12-18T23:55:38;268.45;;;119.57;;
